Time;durP1;ratioP1;P1;durP2;ratioP2;P2;SDS_P1;SDS_P2;PMS_P1;PMS_P2;Temp;Humidity;BMP_temperature;BMP_pressure;BME280_temperature;BME280_humidity;BME280_pressure;Samples;Min_cycle;Max_cycle;Signal;HPM_P1;HPM_P2
2022/03/27 00:01:35;;;;;;;4.57;2.85;;;7.10;99.90;;;;;;5070264;28;20037;-66
2022/03/27 00:04:02;;;;;;;5.55;3.22;;;7.10;99.90;;;;;;5070211;28;20529;-66
2022/03/27 00:06:28;;;;;;;4.60;3.17;;;7.10;99.90;;;;;;5067775;28;20095;-66
2022/03/27 00:08:54;;;;;;;6.47;3.03;;;7.00;99.90;;;;;;5054776;28;20048;-65
2022/03/27 00:11:29;;;;;;;5.15;3.15;;;7.00;99.90;;;;;;5054517;28;20041;-65
2022/03/27 00:14:00;;;;;;;5.53;3.35;;;7.00;99.90;;;;;;5037613;28;20501;-65
2022/03/27 00:16:27;;;;;;;3.63;2.58;;;7.00;99.90;;;;;;5032996;28;20505;-66
2022/03/27 00:18:53;;;;;;;4.10;2.90;;;7.00;99.90;;;;;;5034615;28;20041;-66
2022/03/27 00:21:21;;;;;;;4.57;3.17;;;7.00;99.90;;;;;;5033294;28;20041;-66
2022/03/27 00:23:47;;;;;;;5.82;3.10;;;7.00;99.90;;;;;;5033323;28;20057;-66
2022/03/27 00:26:14;;;;;;;7.55;3.63;;;7.00;99.90;;;;;;5032801;28;20047;-66
2022/03/27 00:28:40;;;;;;;5.00;2.92;;;6.90;99.90;;;;;;5033185;28;20045;-66
2022/03/27 00:31:08;;;;;;;6.25;3.30;;;6.90;99.90;;;;;;5034260;28;20053;-66
2022/03/27 00:33:35;;;;;;;4.85;3.17;;;6.90;99.90;;;;;;5049631;28;20124;-66
2022/03/27 00:36:03;;;;;;;6.07;3.30;;;6.80;99.90;;;;;;5032691;28;20124;-66
2022/03/27 00:38:29;;;;;;;5.43;3.58;;;6.80;99.90;;;;;;5047274;28;20046;-66
2022/03/27 00:40:56;;;;;;;4.88;3.35;;;6.70;99.90;;;;;;5033826;28;20041;-66
2022/03/27 00:43:23;;;;;;;5.03;3.40;;;6.60;99.90;;;;;;5032789;28;20041;-66
2022/03/27 00:45:50;;;;;;;5.38;3.35;;;6.50;99.90;;;;;;5032850;28;20397;-66
2022/03/27 00:48:18;;;;;;;6.00;3.53;;;6.40;99.90;;;;;;5033839;28;20060;-66
2022/03/27 00:50:45;;;;;;;5.88;3.38;;;6.40;99.90;;;;;;5065859;28;20045;-66
2022/03/27 00:53:11;;;;;;;4.93;2.90;;;6.30;99.90;;;;;;5032353;28;20095;-66
2022/03/27 00:55:37;;;;;;;6.05;3.30;;;6.30;99.90;;;;;;5031671;28;20049;-66
2022/03/27 00:58:04;;;;;;;5.47;3.22;;;6.20;99.90;;;;;;5065693;28;20497;-66
2022/03/27 01:00:41;;;;;;;5.80;3.47;;;6.20;99.90;;;;;;5033780;28;20038;-66
2022/03/27 01:03:16;;;;;;;5.97;3.63;;;6.20;99.90;;;;;;5032369;28;20033;-66
2022/03/27 01:05:43;;;;;;;7.00;3.50;;;6.10;99.90;;;;;;5065459;28;20095;-66
2022/03/27 01:08:12;;;;;;;6.38;4.00;;;6.10;99.90;;;;;;5063350;28;20119;-65
2022/03/27 01:10:39;;;;;;;6.32;3.55;;;6.20;99.90;;;;;;5033659;28;20080;-66
2022/03/27 01:13:17;;;;;;;7.95;4.20;;;6.20;99.90;;;;;;5058444;28;20049;-66
2022/03/27 01:15:46;;;;;;;7.88;3.85;;;6.30;99.90;;;;;;5052098;28;20044;-66
2022/03/27 01:18:12;;;;;;;9.07;3.92;;;6.30;99.90;;;;;;5035491;28;20041;-66
2022/03/27 01:20:42;;;;;;;8.23;4.07;;;6.30;99.90;;;;;;5053170;28;20119;-66
2022/03/27 01:23:10;;;;;;;7.35;4.40;;;6.40;99.90;;;;;;5068398;28;20048;-66
2022/03/27 01:25:41;;;;;;;8.07;4.30;;;6.40;99.90;;;;;;5068544;28;20319;-66
2022/03/27 01:28:08;;;;;;;7.03;4.50;;;6.40;99.90;;;;;;5053014;28;20131;-66
2022/03/27 01:30:35;;;;;;;8.70;4.85;;;6.30;99.90;;;;;;5051702;28;20120;-66
2022/03/27 01:33:02;;;;;;;7.30;4.18;;;6.40;99.90;;;;;;5085071;28;20045;-66
2022/03/27 01:35:28;;;;;;;8.25;4.50;;;6.40;99.90;;;;;;5085032;28;20091;-66
2022/03/27 01:37:55;;;;;;;8.85;4.47;;;6.30;99.90;;;;;;5049369;28;20390;-66
2022/03/27 01:40:21;;;;;;;10.18;5.15;;;6.40;99.90;;;;;;5051911;28;20083;-66
2022/03/27 01:42:46;;;;;;;8.38;3.90;;;6.40;99.90;;;;;;5052741;28;20072;-66
2022/03/27 01:45:13;;;;;;;8.43;4.25;;;6.40;99.90;;;;;;5052766;28;20516;-66
2022/03/27 01:47:39;;;;;;;10.13;4.72;;;6.30;99.90;;;;;;5051503;28;20037;-66
2022/03/27 01:50:07;;;;;;;10.50;5.10;;;6.40;99.90;;;;;;5084885;28;20045;-66
2022/03/27 01:52:33;;;;;;;10.18;5.10;;;6.30;99.90;;;;;;5051480;28;20041;-66
2022/03/27 01:55:00;;;;;;;8.85;4.95;;;6.40;99.90;;;;;;5084851;28;20045;-66
2022/03/27 01:57:25;;;;;;;11.07;4.78;;;6.40;99.90;;;;;;5052481;28;20048;-66
2022/03/27 01:59:52;;;;;;;11.63;7.28;;;6.40;99.90;;;;;;5052434;28;20041;-66
2022/03/27 02:02:23;;;;;;;9.50;5.90;;;6.40;99.90;;;;;;5050991;28;20139;-66
2022/03/27 02:04:55;;;;;;;10.85;6.18;;;6.30;99.90;;;;;;5052354;28;20037;-66
2022/03/27 02:07:24;;;;;;;13.23;6.38;;;6.40;99.90;;;;;;5031986;28;20151;-66
2022/03/27 02:09:50;;;;;;;16.25;6.22;;;6.30;99.90;;;;;;5084962;28;20530;-66
2022/03/27 02:12:16;;;;;;;12.02;6.32;;;6.30;99.90;;;;;;5048017;28;20080;-66
2022/03/27 02:14:42;;;;;;;10.05;5.43;;;6.30;99.90;;;;;;5032208;28;20116;-66
2022/03/27 02:17:08;;;;;;;11.60;5.93;;;6.30;99.90;;;;;;5030783;28;20128;-66
2022/03/27 02:19:35;;;;;;;13.77;6.57;;;6.30;99.90;;;;;;5031147;28;20107;-66
2022/03/27 02:22:02;;;;;;;13.25;6.50;;;6.30;99.90;;;;;;5014378;28;20125;-66
2022/03/27 02:24:28;;;;;;;10.18;5.93;;;6.30;99.90;;;;;;5030880;28;20049;-66
2022/03/27 02:26:54;;;;;;;13.85;5.90;;;6.30;99.90;;;;;;5064129;28;20556;-66
2022/03/27 02:29:20;;;;;;;13.23;6.20;;;6.40;99.90;;;;;;5047697;28;20398;-66
2022/03/27 02:31:47;;;;;;;11.60;6.43;;;6.40;99.90;;;;;;5047254;28;20051;-66
2022/03/27 02:34:14;;;;;;;12.95;6.13;;;6.40;99.90;;;;;;5032180;28;20037;-66
2022/03/27 02:36:41;;;;;;;10.68;5.85;;;6.40;99.90;;;;;;5028445;28;20754;-66
2022/03/27 02:39:07;;;;;;;13.85;7.15;;;6.40;99.90;;;;;;5064246;28;20037;-66
2022/03/27 02:41:33;;;;;;;17.30;6.75;;;6.40;99.90;;;;;;5030850;28;20041;-66
2022/03/27 02:43:58;;;;;;;12.40;5.80;;;6.40;99.90;;;;;;5030500;28;20037;-66
2022/03/27 02:46:24;;;;;;;16.58;6.78;;;6.40;99.90;;;;;;5047669;28;20038;-66
2022/03/27 02:48:50;;;;;;;10.23;5.55;;;6.40;99.90;;;;;;5031874;28;20049;-66
2022/03/27 02:51:16;;;;;;;14.75;6.35;;;6.40;99.90;;;;;;5047402;28;20450;-66
2022/03/27 02:53:42;;;;;;;12.82;6.20;;;6.40;99.90;;;;;;5063796;28;20064;-66
2022/03/27 02:56:08;;;;;;;10.25;5.75;;;6.40;99.90;;;;;;5031579;28;20504;-66
2022/03/27 02:58:35;;;;;;;12.30;6.20;;;6.50;99.90;;;;;;5063644;28;20042;-66
2022/03/27 03:01:01;;;;;;;16.38;6.70;;;6.50;99.90;;;;;;5031694;28;20168;-66
2022/03/27 03:03:27;;;;;;;13.55;7.30;;;6.50;99.90;;;;;;5063873;28;20038;-66
2022/03/27 03:05:55;;;;;;;13.27;5.95;;;6.50;99.90;;;;;;5016545;28;20382;-66
2022/03/27 03:08:21;;;;;;;13.00;5.90;;;6.50;99.90;;;;;;5044581;28;20498;-66
2022/03/27 03:10:47;;;;;;;16.88;6.47;;;6.50;99.90;;;;;;5031632;28;20509;-66
2022/03/27 03:13:13;;;;;;;14.98;6.72;;;6.50;99.90;;;;;;5074398;28;20047;-66
2022/03/27 03:15:42;;;;;;;20.83;8.23;;;6.50;99.90;;;;;;5051570;28;20041;-66
2022/03/27 03:18:10;;;;;;;15.00;7.00;;;6.50;99.90;;;;;;5050213;28;20122;-66
2022/03/27 03:20:37;;;;;;;14.55;6.68;;;6.50;99.90;;;;;;5087874;28;20040;-66
2022/03/27 03:23:03;;;;;;;16.33;7.43;;;6.40;99.90;;;;;;5054071;28;20124;-66
2022/03/27 03:25:30;;;;;;;15.73;7.70;;;6.40;99.90;;;;;;5055062;28;20489;-66
2022/03/27 03:27:57;;;;;;;14.15;6.60;;;6.40;99.90;;;;;;5055139;28;20088;-66
2022/03/27 03:30:24;;;;;;;15.82;7.47;;;6.40;99.90;;;;;;5037364;28;20098;-66
2022/03/27 03:32:50;;;;;;;14.70;7.45;;;6.40;99.90;;;;;;5087928;28;20041;-66
2022/03/27 03:35:16;;;;;;;16.60;6.93;;;6.40;99.90;;;;;;5054085;28;20127;-66
2022/03/27 03:37:41;;;;;;;14.82;6.88;;;6.40;99.90;;;;;;5034690;28;20476;-66
2022/03/27 03:40:08;;;;;;;13.57;7.47;;;6.40;99.90;;;;;;5070434;28;20106;-66
2022/03/27 03:42:35;;;;;;;21.40;8.75;;;6.40;99.90;;;;;;5037076;28;20123;-66
2022/03/27 03:45:01;;;;;;;18.42;7.85;;;6.40;99.90;;;;;;5053984;28;20041;-66
2022/03/27 03:47:26;;;;;;;15.85;6.97;;;6.40;99.90;;;;;;5053750;28;20412;-66
2022/03/27 03:49:52;;;;;;;17.98;7.30;;;6.40;99.90;;;;;;5054928;28;20095;-66
2022/03/27 03:52:19;;;;;;;18.77;8.23;;;6.40;99.90;;;;;;5053904;28;20048;-66
2022/03/27 03:54:44;;;;;;;17.90;7.90;;;6.40;99.90;;;;;;5054693;28;20056;-66
2022/03/27 03:57:10;;;;;;;13.40;6.65;;;6.40;99.90;;;;;;5053415;28;20045;-66
2022/03/27 03:59:38;;;;;;;14.93;6.60;;;6.30;99.90;;;;;;5053649;28;20181;-66
2022/03/27 04:02:06;;;;;;;18.67;7.57;;;6.30;99.90;;;;;;5053892;28;20048;-66
2022/03/27 04:04:34;;;;;;;15.13;6.82;;;6.20;99.90;;;;;;5053447;28;20044;-66
2022/03/27 04:07:00;;;;;;;15.82;7.05;;;6.20;99.90;;;;;;5051286;28;20041;-66
2022/03/27 04:09:27;;;;;;;15.48;7.05;;;6.20;99.90;;;;;;5053215;28;20610;-66
2022/03/27 04:11:53;;;;;;;17.92;7.60;;;6.20;99.90;;;;;;5086942;28;20053;-66
2022/03/27 04:14:19;;;;;;;16.75;7.63;;;6.20;99.90;;;;;;5054376;28;20534;-66
2022/03/27 04:16:45;;;;;;;16.50;7.68;;;6.20;99.90;;;;;;5054466;28;20044;-66
2022/03/27 04:19:12;;;;;;;14.35;7.07;;;6.20;99.90;;;;;;5054384;28;20041;-66
2022/03/27 04:21:41;;;;;;;15.98;7.13;;;6.20;99.90;;;;;;5054352;28;20100;-66
2022/03/27 04:24:08;;;;;;;18.38;6.90;;;6.20;99.90;;;;;;5052679;28;20052;-66
2022/03/27 04:26:34;;;;;;;20.52;8.70;;;6.20;99.90;;;;;;5052991;28;20123;-66
2022/03/27 04:29:02;;;;;;;18.77;8.43;;;6.30;99.90;;;;;;5054134;28;20106;-66
2022/03/27 04:31:29;;;;;;;17.25;8.63;;;6.30;99.90;;;;;;5035045;28;20132;-66
2022/03/27 04:33:55;;;;;;;17.15;8.27;;;6.30;99.90;;;;;;5054035;28;20288;-66
2022/03/27 04:36:21;;;;;;;14.68;8.27;;;6.40;99.90;;;;;;5052936;28;20094;-66
2022/03/27 04:38:47;;;;;;;20.25;9.48;;;6.30;99.90;;;;;;5051827;28;20112;-66
2022/03/27 04:41:13;;;;;;;16.63;7.90;;;6.40;99.90;;;;;;5036128;28;20140;-66
2022/03/27 04:43:39;;;;;;;18.02;7.38;;;6.40;99.90;;;;;;5052499;28;20095;-66
2022/03/27 04:46:07;;;;;;;16.42;7.35;;;6.40;99.90;;;;;;5035921;28;20044;-66
2022/03/27 04:48:34;;;;;;;15.13;7.25;;;6.40;99.90;;;;;;5052786;28;20059;-66
2022/03/27 04:51:00;;;;;;;21.30;7.55;;;6.40;99.90;;;;;;5052523;28;20094;-66
2022/03/27 04:53:25;;;;;;;19.80;8.23;;;6.40;99.90;;;;;;5053621;28;20436;-66
2022/03/27 04:55:51;;;;;;;16.13;6.85;;;6.50;99.90;;;;;;5053778;28;20041;-66
2022/03/27 04:58:17;;;;;;;16.00;7.28;;;6.50;99.90;;;;;;5035875;28;20044;-66
2022/03/27 05:00:44;;;;;;;20.88;8.30;;;6.50;99.90;;;;;;5053709;28;20037;-66
2022/03/27 05:03:11;;;;;;;21.75;7.97;;;6.50;99.90;;;;;;5036003;28;20033;-66
2022/03/27 05:05:38;;;;;;;23.15;7.35;;;6.50;99.90;;;;;;5053339;28;20401;-66
2022/03/27 05:08:04;;;;;;;14.18;7.80;;;6.50;99.90;;;;;;5050127;28;20033;-66
2022/03/27 05:10:29;;;;;;;18.20;7.50;;;6.50;99.90;;;;;;5052108;28;20098;-66
2022/03/27 05:12:56;;;;;;;23.42;8.20;;;6.50;99.90;;;;;;5053457;28;20148;-66
2022/03/27 05:15:22;;;;;;;22.08;8.13;;;6.50;99.90;;;;;;5035466;28;20482;-66
2022/03/27 05:17:58;;;;;;;17.92;7.65;;;6.50;99.90;;;;;;5052107;28;20103;-66
2022/03/27 05:20:26;;;;;;;17.80;8.07;;;6.50;99.90;;;;;;5053027;28;20045;-66
2022/03/27 05:22:52;;;;;;;15.63;7.22;;;6.50;99.90;;;;;;5052133;28;20116;-66
2022/03/27 05:25:18;;;;;;;20.02;7.22;;;6.50;99.90;;;;;;5051703;28;20063;-66
2022/03/27 05:27:45;;;;;;;17.48;7.03;;;6.50;99.90;;;;;;5053178;28;20088;-66
2022/03/27 05:30:12;;;;;;;22.83;8.27;;;6.50;99.90;;;;;;5053063;28;20037;-66
2022/03/27 05:32:37;;;;;;;22.90;8.15;;;6.50;99.90;;;;;;5051770;28;20529;-66
2022/03/27 05:35:04;;;;;;;21.58;8.25;;;6.50;99.90;;;;;;5052867;28;20116;-66
2022/03/27 05:37:29;;;;;;;19.10;7.88;;;6.60;99.90;;;;;;5050661;28;20060;-66
2022/03/27 05:39:55;;;;;;;25.25;8.65;;;6.60;99.90;;;;;;5051551;28;20477;-66
2022/03/27 05:42:21;;;;;;;22.35;7.38;;;6.60;99.90;;;;;;5052680;28;20040;-66
2022/03/27 05:44:47;;;;;;;22.23;7.65;;;6.60;99.90;;;;;;5052678;28;20107;-67
2022/03/27 05:47:13;;;;;;;26.13;8.32;;;6.60;99.90;;;;;;5035206;28;20087;-66
2022/03/27 05:49:39;;;;;;;22.40;7.25;;;6.60;99.90;;;;;;5068144;28;20072;-67
2022/03/27 05:52:05;;;;;;;19.60;7.68;;;6.60;99.90;;;;;;5034769;28;20106;-66
2022/03/27 05:54:31;;;;;;;20.90;7.85;;;6.60;99.90;;;;;;5052109;28;20049;-66
2022/03/27 05:56:57;;;;;;;18.13;8.30;;;6.60;99.90;;;;;;5051385;28;20045;-66
2022/03/27 05:59:23;;;;;;;21.25;7.80;;;6.60;99.90;;;;;;5051672;28;20048;-66
2022/03/27 06:01:49;;;;;;;21.65;7.85;;;6.60;99.90;;;;;;5051235;28;20037;-67
2022/03/27 06:04:15;;;;;;;22.20;8.23;;;6.60;99.90;;;;;;5051088;28;20106;-66
2022/03/27 06:06:41;;;;;;;21.15;8.00;;;6.70;99.90;;;;;;5049919;28;20048;-66
2022/03/27 06:09:06;;;;;;;23.33;7.10;;;6.70;99.90;;;;;;5051288;28;20044;-67
2022/03/27 06:11:33;;;;;;;18.40;7.88;;;6.70;99.90;;;;;;5052326;28;20044;-66
2022/03/27 06:13:59;;;;;;;16.88;7.38;;;6.60;99.90;;;;;;5033755;28;20056;-66
2022/03/27 06:16:25;;;;;;;18.15;7.25;;;6.60;99.90;;;;;;5064272;28;20045;-66
2022/03/27 06:18:51;;;;;;;23.10;7.80;;;6.60;99.90;;;;;;5031135;28;20068;-66
2022/03/27 06:21:17;;;;;;;18.55;8.07;;;6.50;99.90;;;;;;5030913;28;20485;-66
2022/03/27 06:23:42;;;;;;;17.20;6.65;;;6.50;99.90;;;;;;5032034;28;20052;-66
2022/03/27 06:26:08;;;;;;;14.32;7.28;;;6.60;99.90;;;;;;5064161;28;20053;-66
2022/03/27 06:28:34;;;;;;;18.00;7.63;;;6.80;99.90;;;;;;5030966;28;20041;-66
2022/03/27 06:31:00;;;;;;;24.63;8.32;;;7.00;99.90;;;;;;5064192;28;20055;-66
2022/03/27 06:33:26;;;;;;;14.80;6.10;;;7.10;99.90;;;;;;5064096;28;20049;-66
2022/03/27 06:35:52;;;;;;;12.98;5.85;;;7.30;99.90;;;;;;5063967;28;20038;-67
2022/03/27 06:38:18;;;;;;;14.20;5.95;;;7.40;99.90;;;;;;5028480;28;20048;-66
2022/03/27 06:40:44;;;;;;;13.45;5.60;;;7.50;99.90;;;;;;5030686;28;20048;-66
2022/03/27 06:43:10;;;;;;;12.77;5.75;;;7.80;99.90;;;;;;5031949;28;20045;-67
2022/03/27 06:45:35;;;;;;;19.00;6.72;;;7.90;99.90;;;;;;5031967;28;20052;-66
2022/03/27 06:48:02;;;;;;;13.95;6.22;;;8.20;99.90;;;;;;5063790;28;20118;-67
2022/03/27 06:50:28;;;;;;;17.38;6.85;;;8.40;99.90;;;;;;5032726;28;20049;-66
2022/03/27 06:52:54;;;;;;;11.98;6.05;;;8.60;99.90;;;;;;5032280;28;20079;-67
2022/03/27 06:55:20;;;;;;;14.73;5.75;;;8.80;99.90;;;;;;5047082;28;20052;-67
2022/03/27 06:57:46;;;;;;;19.92;6.85;;;8.80;99.90;;;;;;5043755;28;20049;-66
2022/03/27 07:03:02;;;;;;;15.20;6.10;;;8.80;99.90;;;;;;5051797;28;20077;-67
2022/03/27 07:05:39;;;;;;;22.90;6.68;;;8.90;99.90;;;;;;5050429;28;20052;-66
2022/03/27 07:08:07;;;;;;;27.75;6.95;;;9.00;99.90;;;;;;5048081;28;20045;-67
2022/03/27 07:10:33;;;;;;;22.92;6.55;;;9.00;99.90;;;;;;5051520;28;20497;-66
2022/03/27 07:13:00;;;;;;;19.67;6.40;;;9.10;99.90;;;;;;5050495;28;20045;-66
2022/03/27 07:15:26;;;;;;;22.98;6.30;;;9.10;99.90;;;;;;5051650;28;20044;-67
2022/03/27 07:17:53;;;;;;;16.23;6.53;;;9.10;99.90;;;;;;5067311;28;20393;-66
2022/03/27 07:20:25;;;;;;;25.83;7.30;;;9.10;99.90;;;;;;5083921;28;20443;-66
2022/03/27 07:22:53;;;;;;;26.67;7.20;;;9.00;99.90;;;;;;5050505;28;20037;-66
2022/03/27 07:25:23;;;;;;;22.23;6.32;;;8.90;99.90;;;;;;5050038;28;20433;-67
2022/03/27 07:27:50;;;;;;;24.33;5.88;;;9.00;99.90;;;;;;5083744;28;20087;-67
2022/03/27 07:30:16;;;;;;;26.73;7.65;;;9.10;99.90;;;;;;5083587;28;20041;-67
2022/03/27 07:32:42;;;;;;;28.00;7.88;;;9.10;99.90;;;;;;5051588;28;20036;-66
2022/03/27 07:35:09;;;;;;;23.70;7.05;;;9.20;99.90;;;;;;5083654;28;20037;-66
2022/03/27 07:37:36;;;;;;;25.70;7.15;;;9.30;99.90;;;;;;5042080;28;20457;-66
2022/03/27 07:40:07;;;;;;;29.00;7.65;;;9.40;99.90;;;;;;5049929;28;20041;-66
2022/03/27 07:42:37;;;;;;;28.65;7.30;;;9.60;99.90;;;;;;5050167;28;20048;-67
2022/03/27 07:45:04;;;;;;;30.73;6.82;;;9.80;99.90;;;;;;5050154;28;20048;-67
2022/03/27 07:47:30;;;;;;;29.05;7.85;;;10.00;99.90;;;;;;5050026;28;20036;-66
2022/03/27 07:49:56;;;;;;;29.50;7.20;;;10.10;99.90;;;;;;5050164;28;20146;-66
2022/03/27 07:52:23;;;;;;;30.02;8.10;;;10.20;99.90;;;;;;5049878;28;20037;-66
2022/03/27 07:54:49;;;;;;;26.35;7.32;;;10.30;99.90;;;;;;5050900;28;20041;-66
2022/03/27 07:57:16;;;;;;;28.35;8.05;;;10.50;99.90;;;;;;5033052;28;20051;-67
2022/03/27 07:59:42;;;;;;;39.00;9.25;;;10.60;99.90;;;;;;5050900;28;20071;-67
2022/03/27 08:02:08;;;;;;;30.90;7.63;;;10.70;99.90;;;;;;5051656;28;20041;-66
2022/03/27 08:04:34;;;;;;;31.70;7.57;;;10.80;99.90;;;;;;5051506;28;20159;-66
2022/03/27 08:07:01;;;;;;;27.10;7.63;;;10.90;99.90;;;;;;5051922;28;20469;-66
2022/03/27 08:09:27;;;;;;;31.40;8.48;;;11.10;99.90;;;;;;5054203;28;20087;-67
2022/03/27 08:11:55;;;;;;;29.35;8.48;;;11.30;99.90;;;;;;5054083;28;20048;-66
2022/03/27 08:14:21;;;;;;;27.65;7.47;;;11.20;99.90;;;;;;5034408;28;20081;-67
2022/03/27 08:16:47;;;;;;;31.67;8.10;;;11.40;99.90;;;;;;5034128;28;20033;-67
2022/03/27 08:19:13;;;;;;;25.08;6.72;;;11.80;99.90;;;;;;5034184;28;20179;-66
2022/03/27 08:21:42;;;;;;;25.40;6.85;;;12.20;99.90;;;;;;5034309;28;20120;-66
2022/03/27 08:24:08;;;;;;;28.67;7.10;;;12.60;99.90;;;;;;5033805;28;20563;-66
2022/03/27 08:29:18;;;;;;;29.60;7.68;;;13.40;99.90;;;;;;5035337;28;20451;-67
2022/03/27 08:31:45;;;;;;;29.88;8.52;;;13.60;99.90;;;;;;5033823;28;20046;-66
2022/03/27 08:34:12;;;;;;;31.83;7.85;;;13.70;99.90;;;;;;5034074;28;20478;-66
2022/03/27 08:36:38;;;;;;;26.85;5.97;;;13.80;99.90;;;;;;5032779;28;20042;-66
2022/03/27 08:39:04;;;;;;;26.02;6.82;;;14.00;99.90;;;;;;5035280;28;20615;-66
2022/03/27 08:41:31;;;;;;;23.98;6.15;;;14.40;99.90;;;;;;5033686;28;20077;-66
2022/03/27 08:43:58;;;;;;;25.55;7.15;;;14.70;99.90;;;;;;5033634;28;20061;-67
2022/03/27 08:46:29;;;;;;;30.95;6.82;;;14.90;99.90;;;;;;5034849;28;20045;-65
2022/03/27 08:49:00;;;;;;;25.60;6.15;;;15.30;99.90;;;;;;5034811;28;20072;-66
2022/03/27 08:51:32;;;;;;;25.83;7.00;;;15.70;99.90;;;;;;5033752;28;20041;-66
2022/03/27 08:54:07;;;;;;;23.50;6.85;;;16.00;99.90;;;;;;5033474;28;20129;-67
2022/03/27 08:56:35;;;;;;;20.70;6.30;;;16.40;99.90;;;;;;5034582;28;20488;-66
2022/03/27 08:59:10;;;;;;;22.30;6.97;;;16.70;99.90;;;;;;5033306;28;20044;-67
2022/03/27 09:01:37;;;;;;;22.50;7.10;;;16.90;99.90;;;;;;5033189;28;20052;-66
2022/03/27 09:04:04;;;;;;;20.58;6.50;;;17.20;99.90;;;;;;5033368;28;20120;-66
2022/03/27 09:06:30;;;;;;;20.00;6.60;;;17.40;99.90;;;;;;5016277;28;20041;-67
2022/03/27 09:08:56;;;;;;;22.10;5.95;;;17.60;99.90;;;;;;5032024;28;20505;-66
2022/03/27 09:11:25;;;;;;;23.98;6.35;;;17.50;99.90;;;;;;5033087;28;20398;-66
2022/03/27 09:13:56;;;;;;;21.13;6.53;;;17.50;99.90;;;;;;5050279;28;20080;-67
2022/03/27 09:16:21;;;;;;;22.98;7.05;;;17.70;99.90;;;;;;5053772;28;20421;-66
2022/03/27 09:18:57;;;;;;;21.30;7.13;;;18.00;99.90;;;;;;5052986;28;20037;-64
2022/03/27 09:21:25;;;;;;;24.88;6.22;;;18.00;99.90;;;;;;5052873;28;20116;-64
2022/03/27 09:23:54;;;;;;;21.55;6.00;;;18.20;99.90;;;;;;5052939;28;20056;-64
2022/03/27 09:26:21;;;;;;;17.75;5.93;;;18.40;99.00;;;;;;5052984;28;20060;-64
2022/03/27 09:28:54;;;;;;;22.20;5.32;;;18.60;99.50;;;;;;5052734;28;20493;-64
2022/03/27 09:31:28;;;;;;;21.98;5.93;;;18.70;98.40;;;;;;5052795;28;20138;-64
2022/03/27 09:34:03;;;;;;;23.55;6.50;;;19.00;96.60;;;;;;5052668;28;20047;-65
2022/03/27 09:36:33;;;;;;;24.10;5.60;;;19.30;95.50;;;;;;5052300;28;20052;-64
2022/03/27 09:39:15;;;;;;;21.00;6.20;;;19.50;94.40;;;;;;5052021;28;20040;-64
2022/03/27 09:41:58;;;;;;;20.92;5.57;;;19.60;92.30;;;;;;5052462;28;20060;-64
2022/03/27 09:44:36;;;;;;;20.13;5.20;;;19.70;91.00;;;;;;5052618;28;20036;-64
2022/03/27 09:47:04;;;;;;;21.25;6.25;;;19.90;91.00;;;;;;5053687;28;20041;-64
2022/03/27 09:49:35;;;;;;;22.65;5.20;;;20.10;87.20;;;;;;5052728;28;20045;-64
2022/03/27 09:52:24;;;;;;;20.90;5.60;;;20.10;80.10;;;;;;5052412;28;20167;-64
2022/03/27 09:54:49;;;;;;;19.80;5.68;;;20.10;82.10;;;;;;5051391;28;20091;-64
2022/03/27 09:57:20;;;;;;;17.90;5.57;;;20.30;83.60;;;;;;5051180;28;20478;-65
2022/03/27 09:59:47;;;;;;;15.80;4.70;;;20.60;80.20;;;;;;5034568;28;20045;-64
2022/03/27 10:02:20;;;;;;;15.27;4.95;;;20.70;74.00;;;;;;5052363;28;20048;-64
2022/03/27 10:04:53;;;;;;;20.27;4.72;;;20.60;70.00;;;;;;5052386;28;20041;-64
2022/03/27 10:07:19;;;;;;;24.90;5.75;;;20.70;69.50;;;;;;5049908;28;20080;-66
2022/03/27 10:09:45;;;;;;;18.88;5.38;;;20.70;68.40;;;;;;5052428;28;20047;-64
2022/03/27 10:12:12;;;;;;;18.02;4.53;;;20.90;66.80;;;;;;5052179;28;20049;-63
2022/03/27 10:14:41;;;;;;;19.10;4.95;;;20.90;65.80;;;;;;5052176;28;20037;-64
2022/03/27 10:17:09;;;;;;;15.93;4.60;;;21.00;65.90;;;;;;5084283;28;20078;-64
2022/03/27 10:19:44;;;;;;;14.93;5.13;;;21.00;65.40;;;;;;5050718;28;20545;-65
2022/03/27 10:22:13;;;;;;;19.65;5.43;;;21.10;64.10;;;;;;5052106;28;20090;-65
2022/03/27 10:24:44;;;;;;;15.55;4.25;;;21.30;64.90;;;;;;5050699;28;20110;-64
2022/03/27 10:27:10;;;;;;;14.93;5.35;;;21.40;61.50;;;;;;5067519;28;20084;-65
2022/03/27 10:29:39;;;;;;;17.25;5.25;;;21.30;58.90;;;;;;5066539;28;20246;-65
2022/03/27 10:32:10;;;;;;;17.38;5.70;;;21.50;58.70;;;;;;5051939;28;20048;-65
2022/03/27 10:34:46;;;;;;;16.77;5.00;;;21.60;59.90;;;;;;5050756;28;20083;-65
2022/03/27 10:37:24;;;;;;;16.63;4.53;;;21.70;59.60;;;;;;5048979;28;20120;-65
2022/03/27 10:40:05;;;;;;;14.20;4.25;;;21.60;59.20;;;;;;5050987;28;20052;-65
2022/03/27 10:43:03;;;;;;;16.13;4.53;;;21.70;58.00;;;;;;5051734;28;20033;-64
2022/03/27 10:45:30;;;;;;;14.35;4.80;;;21.80;55.40;;;;;;5051006;28;20401;-65
2022/03/27 10:48:12;;;;;;;17.45;5.53;;;22.00;55.40;;;;;;5051612;28;20041;-65
2022/03/27 10:50:53;;;;;;;20.27;5.63;;;22.20;57.90;;;;;;5051784;28;20118;-66
2022/03/27 10:53:22;;;;;;;17.20;5.22;;;22.50;57.40;;;;;;5051832;28;20068;-65
2022/03/27 10:55:53;;;;;;;16.77;5.10;;;22.60;58.10;;;;;;5050387;28;20048;-65
2022/03/27 10:58:38;;;;;;;15.23;4.63;;;22.70;55.50;;;;;;5083788;28;20519;-65
2022/03/27 11:01:34;;;;;;;18.27;4.55;;;22.70;53.50;;;;;;5084106;28;20044;-64
2022/03/27 11:04:05;;;;;;;20.63;5.70;;;22.80;53.70;;;;;;5067084;28;20145;-65
2022/03/27 11:06:37;;;;;;;13.13;4.95;;;23.00;54.40;;;;;;5050025;28;20049;-64
2022/03/27 11:09:05;;;;;;;16.65;4.78;;;23.20;53.20;;;;;;5051142;28;20084;-64
2022/03/27 11:11:53;;;;;;;16.23;4.78;;;23.10;51.40;;;;;;5051959;28;20162;-65
2022/03/27 11:14:43;;;;;;;18.95;5.00;;;22.90;51.50;;;;;;5050443;28;20468;-64
2022/03/27 11:17:11;;;;;;;10.52;3.63;;;22.90;50.50;;;;;;5050052;28;20512;-65
2022/03/27 11:19:41;;;;;;;13.88;4.22;;;22.90;49.30;;;;;;5050491;28;20128;-65
2022/03/27 11:22:27;;;;;;;14.15;4.20;;;22.70;47.10;;;;;;5051662;28;20075;-64
2022/03/27 11:25:25;;;;;;;15.68;4.65;;;22.70;50.00;;;;;;5051102;28;20084;-65
2022/03/27 11:28:14;;;;;;;13.18;4.20;;;22.80;51.00;;;;;;5050316;28;20098;-66
2022/03/27 11:31:03;;;;;;;16.85;4.68;;;22.70;51.00;;;;;;5050128;28;20036;-65
2022/03/27 11:33:30;;;;;;;11.02;4.32;;;22.70;48.50;;;;;;5051026;28;20689;-65
2022/03/27 11:36:05;;;;;;;16.67;4.47;;;22.80;50.20;;;;;;5049982;28;20497;-65
2022/03/27 11:38:35;;;;;;;10.98;4.07;;;22.80;50.30;;;;;;5047542;28;20041;-65
2022/03/27 11:41:43;;;;;;;13.65;4.30;;;22.80;50.70;;;;;;5053113;28;20044;-65
2022/03/27 11:44:23;;;;;;;18.42;5.82;;;22.70;49.80;;;;;;5053935;28;20080;-65
2022/03/27 11:46:54;;;;;;;14.65;4.40;;;22.50;50.30;;;;;;5054975;28;20511;-65
2022/03/27 11:49:22;;;;;;;15.20;3.97;;;22.60;45.40;;;;;;5053865;28;20049;-65
2022/03/27 11:52:07;;;;;;;12.98;3.83;;;22.60;47.50;;;;;;5053921;28;20447;-65
2022/03/27 11:54:33;;;;;;;12.82;3.95;;;22.60;47.10;;;;;;5053554;28;20513;-65
2022/03/27 11:57:01;;;;;;;17.13;4.30;;;22.60;47.50;;;;;;5054955;28;20080;-64
2022/03/27 11:59:27;;;;;;;15.55;4.75;;;22.40;47.80;;;;;;5054700;28;20045;-65
2022/03/27 12:01:55;;;;;;;17.80;5.00;;;22.10;49.20;;;;;;5053280;28;20535;-65
2022/03/27 12:04:21;;;;;;;18.40;4.55;;;22.00;49.30;;;;;;5034264;28;20059;-64
2022/03/27 12:06:55;;;;;;;12.48;3.78;;;21.90;50.00;;;;;;5052818;28;20048;-67
2022/03/27 12:09:25;;;;;;;17.60;4.55;;;21.70;48.70;;;;;;5054012;28;20044;-65
2022/03/27 12:12:11;;;;;;;16.63;3.97;;;21.60;46.40;;;;;;5037441;28;20503;-65
2022/03/27 12:14:56;;;;;;;12.90;3.45;;;21.50;48.60;;;;;;5033944;28;20049;-65
2022/03/27 12:17:23;;;;;;;14.23;4.18;;;21.70;44.10;;;;;;5034067;28;20086;-65
2022/03/27 12:20:05;;;;;;;16.23;4.05;;;21.60;45.00;;;;;;5035323;28;20076;-65
2022/03/27 12:22:51;;;;;;;12.93;3.40;;;21.50;45.80;;;;;;5017973;28;20045;-67
2022/03/27 12:25:19;;;;;;;16.77;4.05;;;21.60;48.60;;;;;;5034683;28;20060;-65
2022/03/27 12:30:43;;;;;;;11.15;3.08;;;21.40;47.30;;;;;;5033894;28;20156;-65
2022/03/27 12:33:09;;;;;;;10.75;3.53;;;21.30;48.00;;;;;;5034313;28;20180;-65
2022/03/27 12:35:35;;;;;;;12.82;4.40;;;21.50;46.30;;;;;;5032710;28;20281;-65
2022/03/27 12:38:01;;;;;;;14.52;3.78;;;21.50;46.60;;;;;;5030712;28;20045;-65
2022/03/27 12:40:28;;;;;;;12.35;3.92;;;21.60;47.50;;;;;;5032755;28;20401;-65
2022/03/27 12:42:55;;;;;;;13.13;4.50;;;21.80;48.30;;;;;;5033828;28;20045;-66
2022/03/27 12:45:29;;;;;;;12.18;3.40;;;21.70;47.60;;;;;;5033990;28;20041;-66
2022/03/27 12:47:58;;;;;;;12.95;3.53;;;21.80;48.10;;;;;;5032733;28;20041;-66
2022/03/27 12:50:49;;;;;;;17.38;4.85;;;21.70;48.50;;;;;;5032761;28;20045;-65
2022/03/27 12:53:28;;;;;;;11.38;3.10;;;21.80;48.20;;;;;;5032371;28;20394;-65
2022/03/27 12:55:55;;;;;;;13.05;3.42;;;22.00;47.50;;;;;;5033829;28;20200;-65
2022/03/27 12:58:35;;;;;;;12.40;3.30;;;21.70;47.60;;;;;;5049394;28;20041;-65
2022/03/27 13:01:08;;;;;;;13.77;4.65;;;21.50;47.70;;;;;;5049175;28;20490;-65